Cullen, New York
Current Conditions -  °F | °C
As of 4:09 PM on Wednesday 26 Nov 2014 (Local Time) from KRME Reporting Station
Light Snow Light Snow  
Wind Chill: 31°   Ceiling: 1500
Heat Index: 31°   Visibility: 1mi
Dew Point: 30°   Wind: 3mph
Humidity: 96%   Direction: 340°NNW
Pressure: 30.07"   Gusts: NA
Location:  42.8523°N, 74.9958°W
Report Text: KRME 262109Z 34003KT 1SM -SN BR VV015 M01/M01 A3007 RMK AO2 P0000 T10061011 RVRNO
Loading
Personal Weather Stations






























Interactive Weather Map New forecast layout! Learn more

10-Day Weather Forecast

Advertisements
Track Severe Weather on mobile